sensor_id;sensor_type;location;lat;lon;timestamp;temperature;humidity
29849;DHT22;16728;50.832;5.590;2023-10-31T00:01:01;12.00;99.90
29849;DHT22;16728;50.832;5.590;2023-10-31T00:04:03;12.10;99.90
29849;DHT22;16728;50.832;5.590;2023-10-31T00:07:05;12.10;99.90
29849;DHT22;16728;50.832;5.590;2023-10-31T00:10:08;12.10;99.90
29849;DHT22;16728;50.832;5.590;2023-10-31T00:13:11;12.10;99.90
29849;DHT22;16728;50.832;5.590;2023-10-31T00:16:13;12.10;99.90
29849;DHT22;16728;50.832;5.590;2023-10-31T00:19:15;12.10;99.90
29849;DHT22;16728;50.832;5.590;2023-10-31T00:22:17;12.10;99.90
29849;DHT22;16728;50.832;5.590;2023-10-31T00:25:19;12.10;99.90
29849;DHT22;16728;50.832;5.590;2023-10-31T00:28:21;12.10;99.90
29849;DHT22;16728;50.832;5.590;2023-10-31T00:31:23;12.00;99.90
29849;DHT22;16728;50.832;5.590;2023-10-31T00:34:25;12.10;99.90
29849;DHT22;16728;50.832;5.590;2023-10-31T00:37:27;12.10;99.90
29849;DHT22;16728;50.832;5.590;2023-10-31T00:40:29;12.10;99.90
29849;DHT22;16728;50.832;5.590;2023-10-31T00:43:30;12.10;99.90
29849;DHT22;16728;50.832;5.590;2023-10-31T00:46:33;12.10;99.90
29849;DHT22;16728;50.832;5.590;2023-10-31T00:49:35;12.10;99.90
29849;DHT22;16728;50.832;5.590;2023-10-31T00:52:37;12.00;99.90
29849;DHT22;16728;50.832;5.590;2023-10-31T00:55:39;12.00;99.90
29849;DHT22;16728;50.832;5.590;2023-10-31T00:58:41;12.00;99.90
29849;DHT22;16728;50.832;5.590;2023-10-31T01:01:43;12.00;99.90
29849;DHT22;16728;50.832;5.590;2023-10-31T01:04:45;12.00;99.90
29849;DHT22;16728;50.832;5.590;2023-10-31T01:07:47;12.00;99.90
29849;DHT22;16728;50.832;5.590;2023-10-31T01:10:49;12.00;99.90
29849;DHT22;16728;50.832;5.590;2023-10-31T01:13:51;12.00;99.90
29849;DHT22;16728;50.832;5.590;2023-10-31T01:16:53;12.00;99.90
29849;DHT22;16728;50.832;5.590;2023-10-31T01:19:55;12.00;99.90
29849;DHT22;16728;50.832;5.590;2023-10-31T01:22:57;12.00;99.90
29849;DHT22;16728;50.832;5.590;2023-10-31T01:25:59;12.00;99.90
29849;DHT22;16728;50.832;5.590;2023-10-31T01:29:01;12.00;99.90
29849;DHT22;16728;50.832;5.590;2023-10-31T01:32:03;11.90;99.90
29849;DHT22;16728;50.832;5.590;2023-10-31T01:35:13;12.00;99.90
29849;DHT22;16728;50.832;5.590;2023-10-31T01:38:15;12.00;99.90
29849;DHT22;16728;50.832;5.590;2023-10-31T01:41:17;12.00;99.90
29849;DHT22;16728;50.832;5.590;2023-10-31T01:44:19;11.90;99.90
29849;DHT22;16728;50.832;5.590;2023-10-31T01:47:21;11.90;99.90
29849;DHT22;16728;50.832;5.590;2023-10-31T01:50:25;11.90;99.90
29849;DHT22;16728;50.832;5.590;2023-10-31T01:53:28;12.00;99.90
29849;DHT22;16728;50.832;5.590;2023-10-31T01:56:31;11.90;99.90
29849;DHT22;16728;50.832;5.590;2023-10-31T01:59:33;11.90;99.90
29849;DHT22;16728;50.832;5.590;2023-10-31T02:02:37;11.90;99.90
29849;DHT22;16728;50.832;5.590;2023-10-31T02:05:40;11.90;99.90
29849;DHT22;16728;50.832;5.590;2023-10-31T02:08:42;11.90;99.90
29849;DHT22;16728;50.832;5.590;2023-10-31T02:11:45;11.90;99.90
29849;DHT22;16728;50.832;5.590;2023-10-31T02:14:47;11.90;99.90
29849;DHT22;16728;50.832;5.590;2023-10-31T02:17:49;11.90;99.90
29849;DHT22;16728;50.832;5.590;2023-10-31T02:20:51;11.90;99.90
29849;DHT22;16728;50.832;5.590;2023-10-31T02:24:02;11.90;99.90
29849;DHT22;16728;50.832;5.590;2023-10-31T02:27:04;11.90;99.90
29849;DHT22;16728;50.832;5.590;2023-10-31T02:30:07;11.90;99.90
29849;DHT22;16728;50.832;5.590;2023-10-31T02:33:09;11.90;99.90
29849;DHT22;16728;50.832;5.590;2023-10-31T02:36:11;11.90;99.90
29849;DHT22;16728;50.832;5.590;2023-10-31T02:39:12;11.90;99.90
29849;DHT22;16728;50.832;5.590;2023-10-31T02:42:14;11.90;99.90
29849;DHT22;16728;50.832;5.590;2023-10-31T02:45:16;11.90;99.90
29849;DHT22;16728;50.832;5.590;2023-10-31T02:48:18;11.90;99.90
29849;DHT22;16728;50.832;5.590;2023-10-31T02:51:21;11.90;99.90
29849;DHT22;16728;50.832;5.590;2023-10-31T02:54:23;11.90;99.90
29849;DHT22;16728;50.832;5.590;2023-10-31T02:57:25;11.90;99.90
29849;DHT22;16728;50.832;5.590;2023-10-31T03:00:27;11.90;99.90
29849;DHT22;16728;50.832;5.590;2023-10-31T03:03:29;11.90;99.90
29849;DHT22;16728;50.832;5.590;2023-10-31T03:06:31;11.90;99.90
29849;DHT22;16728;50.832;5.590;2023-10-31T03:09:33;11.90;99.90
29849;DHT22;16728;50.832;5.590;2023-10-31T03:12:34;11.80;99.90
29849;DHT22;16728;50.832;5.590;2023-10-31T03:15:36;11.90;99.90
29849;DHT22;16728;50.832;5.590;2023-10-31T03:18:38;11.90;99.90
29849;DHT22;16728;50.832;5.590;2023-10-31T03:21:40;11.90;99.90
29849;DHT22;16728;50.832;5.590;2023-10-31T03:24:42;11.90;99.90
29849;DHT22;16728;50.832;5.590;2023-10-31T03:27:44;11.80;99.90
29849;DHT22;16728;50.832;5.590;2023-10-31T03:30:47;11.80;99.90
29849;DHT22;16728;50.832;5.590;2023-10-31T03:33:49;11.80;99.90
29849;DHT22;16728;50.832;5.590;2023-10-31T03:36:51;11.80;99.90
29849;DHT22;16728;50.832;5.590;2023-10-31T03:39:53;11.80;99.90
29849;DHT22;16728;50.832;5.590;2023-10-31T03:42:55;11.80;99.90
29849;DHT22;16728;50.832;5.590;2023-10-31T03:45:56;11.80;99.90
29849;DHT22;16728;50.832;5.590;2023-10-31T03:48:58;11.80;99.90
29849;DHT22;16728;50.832;5.590;2023-10-31T03:52:00;11.70;99.90
29849;DHT22;16728;50.832;5.590;2023-10-31T03:55:02;11.70;99.90
29849;DHT22;16728;50.832;5.590;2023-10-31T03:58:05;11.70;99.90
29849;DHT22;16728;50.832;5.590;2023-10-31T04:01:07;11.70;99.90
29849;DHT22;16728;50.832;5.590;2023-10-31T04:04:09;11.80;99.90
29849;DHT22;16728;50.832;5.590;2023-10-31T04:07:11;11.80;99.90
29849;DHT22;16728;50.832;5.590;2023-10-31T04:10:13;11.80;99.90
29849;DHT22;16728;50.832;5.590;2023-10-31T04:13:14;11.80;99.90
29849;DHT22;16728;50.832;5.590;2023-10-31T04:16:16;11.70;99.90
29849;DHT22;16728;50.832;5.590;2023-10-31T04:19:18;11.70;99.90
29849;DHT22;16728;50.832;5.590;2023-10-31T04:22:20;11.70;99.90
29849;DHT22;16728;50.832;5.590;2023-10-31T04:25:22;11.70;99.90
29849;DHT22;16728;50.832;5.590;2023-10-31T04:28:24;11.80;99.90
29849;DHT22;16728;50.832;5.590;2023-10-31T04:31:26;11.70;99.90
29849;DHT22;16728;50.832;5.590;2023-10-31T04:34:42;11.70;99.90
29849;DHT22;16728;50.832;5.590;2023-10-31T04:37:43;11.70;99.90
29849;DHT22;16728;50.832;5.590;2023-10-31T04:40:45;11.70;99.90
29849;DHT22;16728;50.832;5.590;2023-10-31T04:43:47;11.70;99.90
29849;DHT22;16728;50.832;5.590;2023-10-31T04:46:49;11.70;99.90
29849;DHT22;16728;50.832;5.590;2023-10-31T04:49:51;11.60;99.90
29849;DHT22;16728;50.832;5.590;2023-10-31T04:52:53;11.60;99.90
29849;DHT22;16728;50.832;5.590;2023-10-31T04:55:55;11.60;99.90
29849;DHT22;16728;50.832;5.590;2023-10-31T04:58:57;11.60;99.90
29849;DHT22;16728;50.832;5.590;2023-10-31T05:01:59;11.70;99.90
29849;DHT22;16728;50.832;5.590;2023-10-31T05:05:01;11.60;99.90
29849;DHT22;16728;50.832;5.590;2023-10-31T05:08:03;11.60;99.90
29849;DHT22;16728;50.832;5.590;2023-10-31T05:11:05;11.60;99.90
29849;DHT22;16728;50.832;5.590;2023-10-31T05:14:09;11.60;99.90
29849;DHT22;16728;50.832;5.590;2023-10-31T05:17:12;11.50;99.90
29849;DHT22;16728;50.832;5.590;2023-10-31T05:20:14;11.60;99.90
29849;DHT22;16728;50.832;5.590;2023-10-31T05:23:16;11.50;99.90
29849;DHT22;16728;50.832;5.590;2023-10-31T05:26:17;11.50;99.90
29849;DHT22;16728;50.832;5.590;2023-10-31T05:29:19;11.50;99.90
29849;DHT22;16728;50.832;5.590;2023-10-31T05:32:21;11.50;99.90
29849;DHT22;16728;50.832;5.590;2023-10-31T05:35:23;11.50;99.90
29849;DHT22;16728;50.832;5.590;2023-10-31T05:38:26;11.50;99.90
29849;DHT22;16728;50.832;5.590;2023-10-31T05:41:29;11.50;99.90
29849;DHT22;16728;50.832;5.590;2023-10-31T05:44:31;11.50;99.90
29849;DHT22;16728;50.832;5.590;2023-10-31T05:47:32;11.40;99.90
29849;DHT22;16728;50.832;5.590;2023-10-31T05:50:34;11.30;99.90
29849;DHT22;16728;50.832;5.590;2023-10-31T05:53:36;11.40;99.90
29849;DHT22;16728;50.832;5.590;2023-10-31T05:56:38;11.30;99.90
29849;DHT22;16728;50.832;5.590;2023-10-31T05:59:40;11.40;99.90
29849;DHT22;16728;50.832;5.590;2023-10-31T06:02:42;11.40;99.90
29849;DHT22;16728;50.832;5.590;2023-10-31T06:05:45;11.40;99.90
29849;DHT22;16728;50.832;5.590;2023-10-31T06:08:47;11.40;99.90
29849;DHT22;16728;50.832;5.590;2023-10-31T06:11:49;11.40;99.90
29849;DHT22;16728;50.832;5.590;2023-10-31T06:14:53;11.40;99.90
29849;DHT22;16728;50.832;5.590;2023-10-31T06:17:55;11.40;99.90
29849;DHT22;16728;50.832;5.590;2023-10-31T06:20:57;11.30;99.90
29849;DHT22;16728;50.832;5.590;2023-10-31T06:23:59;11.30;99.90
29849;DHT22;16728;50.832;5.590;2023-10-31T06:27:03;11.30;99.90
29849;DHT22;16728;50.832;5.590;2023-10-31T06:30:05;11.30;99.90
29849;DHT22;16728;50.832;5.590;2023-10-31T06:33:24;11.30;99.90
29849;DHT22;16728;50.832;5.590;2023-10-31T06:36:26;11.30;99.90
29849;DHT22;16728;50.832;5.590;2023-10-31T06:39:28;11.30;99.90
29849;DHT22;16728;50.832;5.590;2023-10-31T06:42:30;11.30;99.90
29849;DHT22;16728;50.832;5.590;2023-10-31T06:45:32;11.20;99.90
29849;DHT22;16728;50.832;5.590;2023-10-31T06:48:34;11.20;99.90
29849;DHT22;16728;50.832;5.590;2023-10-31T06:51:36;11.20;99.90
29849;DHT22;16728;50.832;5.590;2023-10-31T06:54:38;11.20;99.90
29849;DHT22;16728;50.832;5.590;2023-10-31T06:57:39;11.20;99.90
29849;DHT22;16728;50.832;5.590;2023-10-31T07:00:41;11.30;99.90
29849;DHT22;16728;50.832;5.590;2023-10-31T07:03:43;11.20;99.90
29849;DHT22;16728;50.832;5.590;2023-10-31T07:06:46;11.20;99.90
29849;DHT22;16728;50.832;5.590;2023-10-31T07:09:47;11.20;99.90
29849;DHT22;16728;50.832;5.590;2023-10-31T07:12:50;11.20;99.90
29849;DHT22;16728;50.832;5.590;2023-10-31T07:15:52;11.30;99.90
29849;DHT22;16728;50.832;5.590;2023-10-31T07:18:54;11.40;99.90
29849;DHT22;16728;50.832;5.590;2023-10-31T07:21:56;11.40;99.90
29849;DHT22;16728;50.832;5.590;2023-10-31T07:24:57;11.40;99.90
29849;DHT22;16728;50.832;5.590;2023-10-31T07:28:01;11.50;99.90
29849;DHT22;16728;50.832;5.590;2023-10-31T07:31:03;11.50;99.90
29849;DHT22;16728;50.832;5.590;2023-10-31T07:34:05;11.60;99.90
29849;DHT22;16728;50.832;5.590;2023-10-31T07:37:08;11.60;99.90
29849;DHT22;16728;50.832;5.590;2023-10-31T07:40:10;11.60;99.90
29849;DHT22;16728;50.832;5.590;2023-10-31T07:43:12;11.60;99.90
29849;DHT22;16728;50.832;5.590;2023-10-31T07:46:14;11.60;99.90
29849;DHT22;16728;50.832;5.590;2023-10-31T07:49:16;11.70;99.90
29849;DHT22;16728;50.832;5.590;2023-10-31T07:52:18;11.60;99.90
29849;DHT22;16728;50.832;5.590;2023-10-31T07:55:19;11.70;99.90
29849;DHT22;16728;50.832;5.590;2023-10-31T07:58:21;11.80;99.90
29849;DHT22;16728;50.832;5.590;2023-10-31T08:01:23;11.90;99.90
29849;DHT22;16728;50.832;5.590;2023-10-31T08:04:25;12.00;99.90
29849;DHT22;16728;50.832;5.590;2023-10-31T08:07:27;12.10;99.90
29849;DHT22;16728;50.832;5.590;2023-10-31T08:10:31;12.20;99.90
29849;DHT22;16728;50.832;5.590;2023-10-31T08:13:37;12.30;99.90
29849;DHT22;16728;50.832;5.590;2023-10-31T08:16:39;12.30;99.90
29849;DHT22;16728;50.832;5.590;2023-10-31T08:19:41;12.40;99.90
29849;DHT22;16728;50.832;5.590;2023-10-31T08:22:45;12.50;99.90
29849;DHT22;16728;50.832;5.590;2023-10-31T08:25:47;12.60;99.90
29849;DHT22;16728;50.832;5.590;2023-10-31T08:28:49;12.60;99.90
29849;DHT22;16728;50.832;5.590;2023-10-31T08:31:51;12.60;99.90
29849;DHT22;16728;50.832;5.590;2023-10-31T08:34:52;12.70;99.90
29849;DHT22;16728;50.832;5.590;2023-10-31T08:37:55;12.70;99.90
29849;DHT22;16728;50.832;5.590;2023-10-31T08:40:58;12.80;99.90
29849;DHT22;16728;50.832;5.590;2023-10-31T08:44:01;12.80;99.90
29849;DHT22;16728;50.832;5.590;2023-10-31T08:47:05;12.80;99.90
29849;DHT22;16728;50.832;5.590;2023-10-31T08:50:08;12.90;99.90
29849;DHT22;16728;50.832;5.590;2023-10-31T08:53:10;12.90;99.90
29849;DHT22;16728;50.832;5.590;2023-10-31T08:56:12;12.90;99.90
29849;DHT22;16728;50.832;5.590;2023-10-31T08:59:14;12.90;99.90
29849;DHT22;16728;50.832;5.590;2023-10-31T09:02:16;12.90;99.90
29849;DHT22;16728;50.832;5.590;2023-10-31T09:05:18;13.00;99.90
29849;DHT22;16728;50.832;5.590;2023-10-31T09:08:20;13.00;99.90
29849;DHT22;16728;50.832;5.590;2023-10-31T09:11:23;13.00;99.90
29849;DHT22;16728;50.832;5.590;2023-10-31T09:14:25;13.00;99.90
29849;DHT22;16728;50.832;5.590;2023-10-31T09:17:27;13.00;99.90
29849;DHT22;16728;50.832;5.590;2023-10-31T09:20:29;13.00;99.90
29849;DHT22;16728;50.832;5.590;2023-10-31T09:23:31;13.00;99.90
29849;DHT22;16728;50.832;5.590;2023-10-31T09:26:34;13.00;99.90
29849;DHT22;16728;50.832;5.590;2023-10-31T09:29:35;13.10;99.90
29849;DHT22;16728;50.832;5.590;2023-10-31T09:32:37;13.00;99.90
29849;DHT22;16728;50.832;5.590;2023-10-31T09:35:40;13.00;99.90
29849;DHT22;16728;50.832;5.590;2023-10-31T09:38:41;13.00;99.90
29849;DHT22;16728;50.832;5.590;2023-10-31T09:41:43;13.00;99.90
29849;DHT22;16728;50.832;5.590;2023-10-31T09:44:45;13.10;99.90
29849;DHT22;16728;50.832;5.590;2023-10-31T09:47:47;13.10;99.90
29849;DHT22;16728;50.832;5.590;2023-10-31T09:50:49;13.10;99.90
29849;DHT22;16728;50.832;5.590;2023-10-31T09:53:54;13.30;99.90
29849;DHT22;16728;50.832;5.590;2023-10-31T09:56:57;13.40;99.90
29849;DHT22;16728;50.832;5.590;2023-10-31T09:59:58;13.50;99.90
29849;DHT22;16728;50.832;5.590;2023-10-31T10:03:01;13.60;99.90
29849;DHT22;16728;50.832;5.590;2023-10-31T10:06:04;13.80;99.90
29849;DHT22;16728;50.832;5.590;2023-10-31T10:09:06;13.80;99.90
29849;DHT22;16728;50.832;5.590;2023-10-31T10:12:15;13.90;99.90
29849;DHT22;16728;50.832;5.590;2023-10-31T10:15:16;13.90;99.90
29849;DHT22;16728;50.832;5.590;2023-10-31T10:18:28;13.90;99.90
29849;DHT22;16728;50.832;5.590;2023-10-31T10:21:49;13.90;99.90
29849;DHT22;16728;50.832;5.590;2023-10-31T10:24:51;13.90;99.90
29849;DHT22;16728;50.832;5.590;2023-10-31T10:27:53;13.80;99.90
29849;DHT22;16728;50.832;5.590;2023-10-31T10:30:55;13.80;99.90
29849;DHT22;16728;50.832;5.590;2023-10-31T10:33:57;13.80;99.90
29849;DHT22;16728;50.832;5.590;2023-10-31T10:37:00;13.70;99.90
29849;DHT22;16728;50.832;5.590;2023-10-31T10:40:05;13.70;99.90
29849;DHT22;16728;50.832;5.590;2023-10-31T10:46:20;13.80;99.90
29849;DHT22;16728;50.832;5.590;2023-10-31T10:49:25;13.70;99.90
29849;DHT22;16728;50.832;5.590;2023-10-31T10:52:30;13.70;99.90
29849;DHT22;16728;50.832;5.590;2023-10-31T10:55:39;13.70;99.90
29849;DHT22;16728;50.832;5.590;2023-10-31T11:02:25;14.00;99.90
29849;DHT22;16728;50.832;5.590;2023-10-31T11:05:29;14.00;99.90
29849;DHT22;16728;50.832;5.590;2023-10-31T11:08:32;14.10;99.90
29849;DHT22;16728;50.832;5.590;2023-10-31T11:11:35;14.20;99.90
29849;DHT22;16728;50.832;5.590;2023-10-31T11:14:38;14.30;99.90
29849;DHT22;16728;50.832;5.590;2023-10-31T11:17:42;14.40;99.90
29849;DHT22;16728;50.832;5.590;2023-10-31T11:20:45;14.50;99.90
29849;DHT22;16728;50.832;5.590;2023-10-31T11:23:57;14.50;99.90
29849;DHT22;16728;50.832;5.590;2023-10-31T11:27:01;14.40;99.90
29849;DHT22;16728;50.832;5.590;2023-10-31T11:33:27;14.30;99.90
29849;DHT22;16728;50.832;5.590;2023-10-31T11:36:31;14.30;99.90
29849;DHT22;16728;50.832;5.590;2023-10-31T11:39:35;14.30;99.90
29849;DHT22;16728;50.832;5.590;2023-10-31T11:42:37;14.30;99.90
29849;DHT22;16728;50.832;5.590;2023-10-31T11:48:52;14.30;99.90
29849;DHT22;16728;50.832;5.590;2023-10-31T11:51:54;14.30;99.90
29849;DHT22;16728;50.832;5.590;2023-10-31T11:54:56;14.30;99.90
29849;DHT22;16728;50.832;5.590;2023-10-31T11:57:58;14.40;99.90
29849;DHT22;16728;50.832;5.590;2023-10-31T12:01:03;14.50;99.90
29849;DHT22;16728;50.832;5.590;2023-10-31T12:04:05;14.50;99.90
29849;DHT22;16728;50.832;5.590;2023-10-31T12:07:10;14.50;99.90
29849;DHT22;16728;50.832;5.590;2023-10-31T12:10:13;14.50;99.90
29849;DHT22;16728;50.832;5.590;2023-10-31T12:13:14;14.50;99.90
29849;DHT22;16728;50.832;5.590;2023-10-31T12:16:17;14.40;99.90
29849;DHT22;16728;50.832;5.590;2023-10-31T12:19:21;14.30;99.90
29849;DHT22;16728;50.832;5.590;2023-10-31T12:22:23;14.30;99.90
29849;DHT22;16728;50.832;5.590;2023-10-31T12:25:24;14.30;99.90
29849;DHT22;16728;50.832;5.590;2023-10-31T12:28:27;14.30;99.90
29849;DHT22;16728;50.832;5.590;2023-10-31T12:31:30;14.30;99.90
29849;DHT22;16728;50.832;5.590;2023-10-31T12:34:32;14.30;99.90
29849;DHT22;16728;50.832;5.590;2023-10-31T12:37:36;14.30;99.90
29849;DHT22;16728;50.832;5.590;2023-10-31T12:40:40;14.20;99.90
29849;DHT22;16728;50.832;5.590;2023-10-31T12:43:43;14.30;99.90
29849;DHT22;16728;50.832;5.590;2023-10-31T12:46:46;14.30;99.90
29849;DHT22;16728;50.832;5.590;2023-10-31T12:50:36;14.30;99.90
29849;DHT22;16728;50.832;5.590;2023-10-31T12:53:31;14.20;99.90
29849;DHT22;16728;50.832;5.590;2023-10-31T12:56:40;14.20;99.90
29849;DHT22;16728;50.832;5.590;2023-10-31T12:59:42;14.10;99.90
29849;DHT22;16728;50.832;5.590;2023-10-31T13:02:45;14.10;99.90
29849;DHT22;16728;50.832;5.590;2023-10-31T13:05:47;14.10;99.90
29849;DHT22;16728;50.832;5.590;2023-10-31T13:08:48;14.00;99.90
29849;DHT22;16728;50.832;5.590;2023-10-31T13:11:50;14.00;99.90
29849;DHT22;16728;50.832;5.590;2023-10-31T13:14:52;14.00;99.90
29849;DHT22;16728;50.832;5.590;2023-10-31T13:17:55;14.00;99.90
29849;DHT22;16728;50.832;5.590;2023-10-31T13:20:57;14.00;99.90
29849;DHT22;16728;50.832;5.590;2023-10-31T13:23:59;14.00;99.90
29849;DHT22;16728;50.832;5.590;2023-10-31T13:27:01;14.00;99.90
29849;DHT22;16728;50.832;5.590;2023-10-31T13:30:04;14.00;99.90
29849;DHT22;16728;50.832;5.590;2023-10-31T13:33:06;13.90;99.90
29849;DHT22;16728;50.832;5.590;2023-10-31T13:36:09;13.90;99.90
29849;DHT22;16728;50.832;5.590;2023-10-31T13:39:12;13.90;99.90
29849;DHT22;16728;50.832;5.590;2023-10-31T13:42:16;13.80;99.90
29849;DHT22;16728;50.832;5.590;2023-10-31T13:45:17;13.80;99.90
29849;DHT22;16728;50.832;5.590;2023-10-31T13:48:19;13.80;99.90
29849;DHT22;16728;50.832;5.590;2023-10-31T13:51:21;13.70;99.90
29849;DHT22;16728;50.832;5.590;2023-10-31T13:54:23;13.80;99.90
29849;DHT22;16728;50.832;5.590;2023-10-31T13:57:25;13.70;99.90
29849;DHT22;16728;50.832;5.590;2023-10-31T14:00:27;13.70;99.90
29849;DHT22;16728;50.832;5.590;2023-10-31T14:03:29;13.60;99.90
29849;DHT22;16728;50.832;5.590;2023-10-31T14:06:31;13.60;99.90
29849;DHT22;16728;50.832;5.590;2023-10-31T14:09:34;13.60;99.90
29849;DHT22;16728;50.832;5.590;2023-10-31T14:12:36;13.60;99.90
29849;DHT22;16728;50.832;5.590;2023-10-31T14:15:38;13.60;99.90
29849;DHT22;16728;50.832;5.590;2023-10-31T14:18:40;13.60;99.90
29849;DHT22;16728;50.832;5.590;2023-10-31T14:21:44;13.50;99.90
29849;DHT22;16728;50.832;5.590;2023-10-31T14:24:46;13.50;99.90
29849;DHT22;16728;50.832;5.590;2023-10-31T14:27:48;13.40;99.90
29849;DHT22;16728;50.832;5.590;2023-10-31T14:30:50;13.30;99.90
29849;DHT22;16728;50.832;5.590;2023-10-31T14:33:54;13.30;99.90
29849;DHT22;16728;50.832;5.590;2023-10-31T14:36:56;13.30;99.90
29849;DHT22;16728;50.832;5.590;2023-10-31T14:39:58;13.30;99.90
29849;DHT22;16728;50.832;5.590;2023-10-31T14:43:00;13.30;99.90
29849;DHT22;16728;50.832;5.590;2023-10-31T14:46:03;13.30;99.90
29849;DHT22;16728;50.832;5.590;2023-10-31T14:49:05;13.40;99.90
29849;DHT22;16728;50.832;5.590;2023-10-31T14:52:07;13.30;99.90
29849;DHT22;16728;50.832;5.590;2023-10-31T14:55:10;13.30;99.90
29849;DHT22;16728;50.832;5.590;2023-10-31T14:58:12;13.30;99.90
29849;DHT22;16728;50.832;5.590;2023-10-31T15:01:14;13.30;99.90
29849;DHT22;16728;50.832;5.590;2023-10-31T15:04:18;13.30;99.90
29849;DHT22;16728;50.832;5.590;2023-10-31T15:07:20;13.30;99.90
29849;DHT22;16728;50.832;5.590;2023-10-31T15:10:22;13.30;99.90
29849;DHT22;16728;50.832;5.590;2023-10-31T15:13:24;13.30;99.90
29849;DHT22;16728;50.832;5.590;2023-10-31T15:16:26;13.30;99.90
29849;DHT22;16728;50.832;5.590;2023-10-31T15:19:28;13.30;99.90
29849;DHT22;16728;50.832;5.590;2023-10-31T15:22:30;13.30;99.90
29849;DHT22;16728;50.832;5.590;2023-10-31T15:25:31;13.30;99.90
29849;DHT22;16728;50.832;5.590;2023-10-31T15:28:33;13.30;99.90
29849;DHT22;16728;50.832;5.590;2023-10-31T15:31:35;13.30;99.90
29849;DHT22;16728;50.832;5.590;2023-10-31T15:34:39;13.30;99.90
29849;DHT22;16728;50.832;5.590;2023-10-31T15:37:44;13.30;99.90
29849;DHT22;16728;50.832;5.590;2023-10-31T15:40:47;13.30;99.90
29849;DHT22;16728;50.832;5.590;2023-10-31T15:43:49;13.30;99.90
29849;DHT22;16728;50.832;5.590;2023-10-31T15:46:51;13.30;99.90
29849;DHT22;16728;50.832;5.590;2023-10-31T15:49:53;13.30;99.90
29849;DHT22;16728;50.832;5.590;2023-10-31T15:52:55;13.20;99.90
29849;DHT22;16728;50.832;5.590;2023-10-31T15:55:57;13.20;99.90
29849;DHT22;16728;50.832;5.590;2023-10-31T15:58:58;13.10;99.90
29849;DHT22;16728;50.832;5.590;2023-10-31T16:02:00;13.10;99.90
29849;DHT22;16728;50.832;5.590;2023-10-31T16:05:02;13.10;99.90
29849;DHT22;16728;50.832;5.590;2023-10-31T16:08:05;13.10;99.90
29849;DHT22;16728;50.832;5.590;2023-10-31T16:11:08;13.10;99.90
29849;DHT22;16728;50.832;5.590;2023-10-31T16:14:11;13.00;99.90
29849;DHT22;16728;50.832;5.590;2023-10-31T16:17:13;13.00;99.90
29849;DHT22;16728;50.832;5.590;2023-10-31T16:20:15;13.10;99.90
29849;DHT22;16728;50.832;5.590;2023-10-31T16:23:17;13.00;99.90
29849;DHT22;16728;50.832;5.590;2023-10-31T16:26:21;13.10;99.90
29849;DHT22;16728;50.832;5.590;2023-10-31T16:29:23;13.10;99.90
29849;DHT22;16728;50.832;5.590;2023-10-31T16:32:25;13.10;99.90
29849;DHT22;16728;50.832;5.590;2023-10-31T16:35:35;13.10;99.90
29849;DHT22;16728;50.832;5.590;2023-10-31T16:38:37;13.10;99.90
29849;DHT22;16728;50.832;5.590;2023-10-31T16:41:39;13.10;99.90
29849;DHT22;16728;50.832;5.590;2023-10-31T16:44:41;13.10;99.90
29849;DHT22;16728;50.832;5.590;2023-10-31T16:47:44;13.10;99.90
29849;DHT22;16728;50.832;5.590;2023-10-31T16:50:46;13.10;99.90
29849;DHT22;16728;50.832;5.590;2023-10-31T16:53:49;13.10;99.90
29849;DHT22;16728;50.832;5.590;2023-10-31T16:56:51;13.00;99.90
29849;DHT22;16728;50.832;5.590;2023-10-31T16:59:53;13.10;99.90
29849;DHT22;16728;50.832;5.590;2023-10-31T17:02:55;13.00;99.90
29849;DHT22;16728;50.832;5.590;2023-10-31T17:05:59;13.00;99.90
29849;DHT22;16728;50.832;5.590;2023-10-31T17:09:01;13.00;99.90
29849;DHT22;16728;50.832;5.590;2023-10-31T17:12:03;13.00;99.90
29849;DHT22;16728;50.832;5.590;2023-10-31T17:15:06;13.00;99.90
29849;DHT22;16728;50.832;5.590;2023-10-31T17:18:09;12.90;99.90
29849;DHT22;16728;50.832;5.590;2023-10-31T17:21:12;12.90;99.90
29849;DHT22;16728;50.832;5.590;2023-10-31T17:24:14;12.90;99.90
29849;DHT22;16728;50.832;5.590;2023-10-31T17:27:17;12.90;99.90
29849;DHT22;16728;50.832;5.590;2023-10-31T17:30:21;12.90;99.90
29849;DHT22;16728;50.832;5.590;2023-10-31T17:33:23;12.90;99.90
29849;DHT22;16728;50.832;5.590;2023-10-31T17:36:29;12.90;99.90
29849;DHT22;16728;50.832;5.590;2023-10-31T17:39:34;12.90;99.90
29849;DHT22;16728;50.832;5.590;2023-10-31T17:42:36;12.90;99.90
29849;DHT22;16728;50.832;5.590;2023-10-31T17:45:38;12.90;99.90
29849;DHT22;16728;50.832;5.590;2023-10-31T17:48:40;12.80;99.90
29849;DHT22;16728;50.832;5.590;2023-10-31T17:51:42;12.90;99.90
29849;DHT22;16728;50.832;5.590;2023-10-31T17:54:44;12.80;99.90
29849;DHT22;16728;50.832;5.590;2023-10-31T17:57:46;12.90;99.90
29849;DHT22;16728;50.832;5.590;2023-10-31T18:00:48;12.80;99.90
29849;DHT22;16728;50.832;5.590;2023-10-31T18:03:50;12.90;99.90
29849;DHT22;16728;50.832;5.590;2023-10-31T18:06:54;12.90;99.90
29849;DHT22;16728;50.832;5.590;2023-10-31T18:09:56;12.90;99.90
29849;DHT22;16728;50.832;5.590;2023-10-31T18:12:58;12.80;99.90
29849;DHT22;16728;50.832;5.590;2023-10-31T18:16:04;12.70;99.90
29849;DHT22;16728;50.832;5.590;2023-10-31T18:19:07;12.80;99.90
29849;DHT22;16728;50.832;5.590;2023-10-31T18:22:09;12.80;99.90
29849;DHT22;16728;50.832;5.590;2023-10-31T18:25:11;12.70;99.90
29849;DHT22;16728;50.832;5.590;2023-10-31T18:28:13;12.80;99.90
29849;DHT22;16728;50.832;5.590;2023-10-31T18:31:16;12.80;99.90
29849;DHT22;16728;50.832;5.590;2023-10-31T18:34:18;12.80;99.90
29849;DHT22;16728;50.832;5.590;2023-10-31T18:37:20;12.80;99.90
29849;DHT22;16728;50.832;5.590;2023-10-31T18:40:22;12.80;99.90
29849;DHT22;16728;50.832;5.590;2023-10-31T18:43:24;12.90;99.90
29849;DHT22;16728;50.832;5.590;2023-10-31T18:46:26;12.80;99.90
29849;DHT22;16728;50.832;5.590;2023-10-31T18:49:28;12.80;99.90
29849;DHT22;16728;50.832;5.590;2023-10-31T18:52:31;12.80;99.90
29849;DHT22;16728;50.832;5.590;2023-10-31T18:55:33;12.80;99.90
29849;DHT22;16728;50.832;5.590;2023-10-31T18:58:35;12.90;99.90
29849;DHT22;16728;50.832;5.590;2023-10-31T19:01:37;12.90;99.90
29849;DHT22;16728;50.832;5.590;2023-10-31T19:04:39;12.80;99.90
29849;DHT22;16728;50.832;5.590;2023-10-31T19:07:42;12.80;99.90
29849;DHT22;16728;50.832;5.590;2023-10-31T19:10:43;12.80;99.90
29849;DHT22;16728;50.832;5.590;2023-10-31T19:13:49;12.80;99.90
29849;DHT22;16728;50.832;5.590;2023-10-31T19:16:51;12.80;99.90
29849;DHT22;16728;50.832;5.590;2023-10-31T19:19:53;12.70;99.90
29849;DHT22;16728;50.832;5.590;2023-10-31T19:22:55;12.80;99.90
29849;DHT22;16728;50.832;5.590;2023-10-31T19:25:58;12.80;99.90